Time;durP1;ratioP1;P1;durP2;ratioP2;P2;SDS_P1;SDS_P2;PMS_P1;PMS_P2;Temp;Humidity;BMP_temperature;BMP_pressure;BME280_temperature;BME280_humidity;BME280_pressure;Samples;Min_cycle;Max_cycle;Signal;HPM_P1;HPM_P2
2021/11/20 00:02:17;;;;;;;15.30;7.40;;;8.40;99.90;;;;;;5075662;28;20028;-75
2021/11/20 00:04:44;;;;;;;17.52;7.65;;;8.40;99.90;;;;;;5092636;28;20044;-76
2021/11/20 00:07:10;;;;;;;15.85;6.75;;;8.40;99.90;;;;;;5074467;28;20043;-76
2021/11/20 00:09:36;;;;;;;16.40;7.65;;;8.40;99.90;;;;;;5093080;28;20031;-74
2021/11/20 00:12:12;;;;;;;14.52;7.05;;;8.40;99.90;;;;;;5074659;28;20024;-80
2021/11/20 00:14:37;;;;;;;15.93;7.82;;;8.50;99.90;;;;;;5075465;28;20028;-75
2021/11/20 00:17:05;;;;;;;14.80;7.40;;;8.50;99.90;;;;;;5092298;28;20062;-76
2021/11/20 00:19:32;;;;;;;15.98;7.07;;;8.40;99.90;;;;;;5074675;28;20036;-75
2021/11/20 00:22:21;;;;;;;16.95;7.85;;;8.40;99.90;;;;;;5075118;28;20465;-76
2021/11/20 00:24:53;;;;;;;16.75;7.15;;;8.40;99.90;;;;;;5093085;28;20033;-78
2021/11/20 00:27:26;;;;;;;17.33;7.13;;;8.40;99.90;;;;;;5092698;28;20176;-72
2021/11/20 00:30:02;;;;;;;13.32;7.05;;;8.30;99.90;;;;;;5090256;28;20501;-73
2021/11/20 00:32:33;;;;;;;14.93;7.45;;;8.30;99.90;;;;;;5071991;28;20031;-72
2021/11/20 00:35:03;;;;;;;14.88;7.05;;;8.40;99.90;;;;;;5071993;28;20054;-74
2021/11/20 00:37:29;;;;;;;17.75;7.28;;;8.40;99.90;;;;;;5075736;28;20034;-78
2021/11/20 00:39:56;;;;;;;14.57;7.22;;;8.40;99.90;;;;;;5075124;28;20024;-77
2021/11/20 00:42:21;;;;;;;15.07;7.45;;;8.40;99.90;;;;;;5076784;28;20028;-77
2021/11/20 00:44:48;;;;;;;14.07;7.43;;;8.40;99.90;;;;;;5064708;28;20086;-78
2021/11/20 00:47:15;;;;;;;16.02;7.70;;;8.40;99.90;;;;;;5060259;28;20078;-76
2021/11/20 00:49:41;;;;;;;16.23;7.90;;;8.40;99.90;;;;;;5076801;28;20039;-76
2021/11/20 00:52:07;;;;;;;15.48;7.82;;;8.30;99.90;;;;;;5076018;28;20032;-74
2021/11/20 00:54:34;;;;;;;15.15;7.95;;;8.40;99.90;;;;;;5078201;28;20472;-74
2021/11/20 00:57:01;;;;;;;15.88;7.75;;;8.40;99.90;;;;;;5076455;28;20404;-74
2021/11/20 00:59:27;;;;;;;17.58;8.38;;;8.30;99.90;;;;;;5095518;28;20444;-75
2021/11/20 01:01:58;;;;;;;17.85;8.10;;;8.40;99.90;;;;;;5077035;28;20389;-77
2021/11/20 01:04:27;;;;;;;16.20;7.68;;;8.40;99.90;;;;;;5077920;28;20032;-74
2021/11/20 01:06:54;;;;;;;16.73;8.57;;;8.40;99.90;;;;;;5095195;28;20026;-75
2021/11/20 01:09:23;;;;;;;19.48;8.07;;;8.40;99.90;;;;;;5077816;28;20024;-74
2021/11/20 01:11:53;;;;;;;15.60;7.57;;;8.40;99.90;;;;;;5077581;28;20024;-76
2021/11/20 01:14:21;;;;;;;13.70;7.30;;;8.40;99.90;;;;;;5096590;28;20024;-74
2021/11/20 01:16:48;;;;;;;15.65;6.93;;;8.40;99.90;;;;;;5077620;28;20021;-75
2021/11/20 01:19:14;;;;;;;15.18;7.35;;;8.40;99.90;;;;;;5077033;28;20042;-75
2021/11/20 01:21:42;;;;;;;16.23;8.00;;;8.40;99.90;;;;;;5077599;28;20524;-74
2021/11/20 01:24:09;;;;;;;15.93;7.07;;;8.40;99.90;;;;;;5095491;28;20024;-74
2021/11/20 01:26:36;;;;;;;12.70;6.57;;;8.40;99.90;;;;;;5078010;28;20028;-74
2021/11/20 01:29:04;;;;;;;15.50;7.10;;;8.40;99.90;;;;;;5077446;28;20059;-73
2021/11/20 01:31:31;;;;;;;11.70;6.25;;;8.40;99.90;;;;;;5096026;28;20050;-74
2021/11/20 01:33:58;;;;;;;13.32;6.75;;;8.30;99.90;;;;;;5077191;28;20028;-75
2021/11/20 01:36:28;;;;;;;14.50;6.88;;;8.40;99.90;;;;;;5095947;28;20028;-74
2021/11/20 01:38:57;;;;;;;13.13;6.05;;;8.40;99.90;;;;;;5076979;28;20031;-76
2021/11/20 01:41:25;;;;;;;12.57;6.60;;;8.40;99.90;;;;;;5095681;28;20098;-75
2021/11/20 01:43:54;;;;;;;13.00;6.25;;;8.40;99.90;;;;;;5095649;28;20064;-76
2021/11/20 01:46:29;;;;;;;11.80;6.00;;;8.40;99.90;;;;;;5077230;28;20035;-74
2021/11/20 01:48:58;;;;;;;12.45;5.57;;;8.40;99.90;;;;;;5077102;28;20039;-75
2021/11/20 01:52:02;;;;;;;12.68;6.22;;;8.40;99.90;;;;;;5095618;28;20072;-75
2021/11/20 01:54:58;;;;;;;11.52;6.22;;;8.40;99.90;;;;;;5060917;28;20066;-75
2021/11/20 01:57:32;;;;;;;15.77;6.93;;;8.40;99.90;;;;;;5077489;28;20052;-76
2021/11/20 02:00:08;;;;;;;16.73;7.80;;;8.40;99.90;;;;;;5077065;28;20061;-75
2021/11/20 02:02:41;;;;;;;18.85;7.78;;;8.40;99.90;;;;;;5077535;28;20035;-75
2021/11/20 02:05:13;;;;;;;15.60;7.05;;;8.40;99.90;;;;;;5094442;28;20032;-75
2021/11/20 02:07:55;;;;;;;14.85;6.80;;;8.40;99.90;;;;;;5076897;28;20058;-75
2021/11/20 02:10:27;;;;;;;12.48;7.03;;;8.40;99.90;;;;;;5076941;28;20028;-75
2021/11/20 02:13:00;;;;;;;12.20;6.57;;;8.30;99.90;;;;;;5095138;28;20039;-76
2021/11/20 02:15:49;;;;;;;14.90;7.13;;;8.40;99.90;;;;;;5095171;28;20027;-75
2021/11/20 02:18:17;;;;;;;14.55;7.15;;;8.40;99.90;;;;;;5076476;28;20089;-75
2021/11/20 02:21:13;;;;;;;14.25;7.13;;;8.40;99.90;;;;;;5076917;28;20020;-75
2021/11/20 02:23:39;;;;;;;13.55;6.57;;;8.40;99.90;;;;;;5076897;28;20032;-75
2021/11/20 02:26:04;;;;;;;16.52;8.13;;;8.40;99.90;;;;;;5094522;28;20111;-75
2021/11/20 02:28:31;;;;;;;16.45;7.50;;;8.40;99.90;;;;;;5076844;28;20035;-75
2021/11/20 02:30:58;;;;;;;14.60;7.00;;;8.40;99.90;;;;;;5076342;28;20038;-76
2021/11/20 02:33:40;;;;;;;15.15;7.47;;;8.40;99.90;;;;;;5094786;28;20123;-74
2021/11/20 02:36:09;;;;;;;16.85;7.90;;;8.40;99.90;;;;;;5076039;28;20024;-74
2021/11/20 02:38:56;;;;;;;14.77;7.72;;;8.40;99.90;;;;;;5076438;28;20078;-74
2021/11/20 02:41:22;;;;;;;16.10;7.63;;;8.40;99.90;;;;;;5076109;28;20028;-74
2021/11/20 02:43:51;;;;;;;13.30;7.45;;;8.40;99.90;;;;;;5074438;28;20077;-74
2021/11/20 02:46:20;;;;;;;19.15;8.45;;;8.40;99.90;;;;;;5085612;28;20049;-74
2021/11/20 02:48:46;;;;;;;18.73;8.25;;;8.40;99.90;;;;;;5093987;28;20111;-74
2021/11/20 02:51:14;;;;;;;14.70;7.47;;;8.40;99.90;;;;;;5075551;28;20062;-75
2021/11/20 02:53:43;;;;;;;16.35;8.32;;;8.40;99.90;;;;;;5076326;28;20535;-75
2021/11/20 02:56:12;;;;;;;16.45;8.07;;;8.40;99.90;;;;;;5093657;28;20028;-75
2021/11/20 02:58:39;;;;;;;17.80;8.52;;;8.40;99.90;;;;;;5093738;28;20139;-75
2021/11/20 03:01:13;;;;;;;18.48;8.32;;;8.40;99.90;;;;;;5093452;28;20058;-75
2021/11/20 03:03:39;;;;;;;15.82;8.88;;;8.40;99.90;;;;;;5094159;28;20077;-75
2021/11/20 03:06:05;;;;;;;18.85;9.55;;;8.40;99.90;;;;;;5074294;28;20028;-74
2021/11/20 03:08:31;;;;;;;19.33;8.88;;;8.40;99.90;;;;;;5093981;28;20048;-75
2021/11/20 03:10:57;;;;;;;19.77;9.48;;;8.30;99.90;;;;;;5075510;28;20063;-75
2021/11/20 03:13:23;;;;;;;19.67;9.50;;;8.30;99.90;;;;;;5093568;28;20028;-74
2021/11/20 03:15:48;;;;;;;22.65;9.70;;;8.30;99.90;;;;;;5093612;28;20111;-74
2021/11/20 03:18:14;;;;;;;19.98;9.40;;;8.40;99.90;;;;;;5093099;28;20031;-74
2021/11/20 03:20:42;;;;;;;22.42;9.75;;;8.30;99.90;;;;;;5093748;28;20491;-74
2021/11/20 03:23:17;;;;;;;19.98;9.55;;;8.30;99.90;;;;;;5074824;28;20020;-74
2021/11/20 03:25:42;;;;;;;20.08;9.18;;;8.40;99.90;;;;;;5075561;28;20036;-74
2021/11/20 03:28:08;;;;;;;22.45;9.77;;;8.40;99.90;;;;;;5074941;28;20076;-74
2021/11/20 03:30:34;;;;;;;21.60;9.98;;;8.30;99.90;;;;;;5075349;28;20024;-73
2021/11/20 03:33:01;;;;;;;23.10;9.70;;;8.30;99.90;;;;;;5075134;28;20024;-78
2021/11/20 03:35:27;;;;;;;21.23;9.50;;;8.30;99.90;;;;;;5093441;28;20103;-74
2021/11/20 03:37:53;;;;;;;21.63;9.75;;;8.30;99.90;;;;;;5093617;28;20028;-74
2021/11/20 03:40:20;;;;;;;21.55;10.20;;;8.40;99.90;;;;;;5074964;28;20016;-74
2021/11/20 03:42:46;;;;;;;20.35;9.95;;;8.30;99.90;;;;;;5075538;28;20054;-74
2021/11/20 03:45:14;;;;;;;19.65;9.23;;;8.30;99.90;;;;;;5074547;28;20118;-74
2021/11/20 03:47:40;;;;;;;23.25;9.85;;;8.30;99.90;;;;;;5074823;28;20038;-74
2021/11/20 03:50:08;;;;;;;23.25;10.30;;;8.30;99.90;;;;;;5092823;28;20028;-74
2021/11/20 03:52:33;;;;;;;20.77;10.15;;;8.40;99.90;;;;;;5074913;28;20068;-74
2021/11/20 03:54:59;;;;;;;18.65;9.73;;;8.40;99.90;;;;;;5093144;28;20085;-75
2021/11/20 03:57:25;;;;;;;21.55;10.30;;;8.40;99.90;;;;;;5092485;28;20056;-74
2021/11/20 03:59:50;;;;;;;24.30;10.25;;;8.30;99.90;;;;;;5092959;28;20038;-74
2021/11/20 04:02:17;;;;;;;23.00;10.73;;;8.40;99.90;;;;;;5092740;28;20028;-74
2021/11/20 04:04:43;;;;;;;24.88;10.07;;;8.40;99.90;;;;;;5093031;28;20024;-73
2021/11/20 04:07:09;;;;;;;23.85;11.00;;;8.40;99.90;;;;;;5092475;28;20028;-75
2021/11/20 04:09:35;;;;;;;19.35;10.15;;;8.30;99.90;;;;;;5092989;28;20028;-75
2021/11/20 04:12:00;;;;;;;25.48;10.88;;;8.30;99.90;;;;;;5074834;28;20032;-77
2021/11/20 04:14:27;;;;;;;23.98;10.52;;;8.30;99.90;;;;;;5092445;28;20097;-75
2021/11/20 04:16:53;;;;;;;22.90;10.73;;;8.30;99.90;;;;;;5074263;28;20119;-75
2021/11/20 04:19:20;;;;;;;24.73;10.93;;;8.30;99.90;;;;;;5074446;28;20127;-74
2021/11/20 04:21:46;;;;;;;23.23;10.55;;;8.30;99.90;;;;;;5074732;28;20469;-75
2021/11/20 04:24:13;;;;;;;19.08;10.50;;;8.20;99.90;;;;;;5092159;28;20024;-75
2021/11/20 04:26:39;;;;;;;22.40;10.75;;;8.20;99.90;;;;;;5074830;28;20039;-75
2021/11/20 04:29:05;;;;;;;24.08;11.02;;;8.30;99.90;;;;;;5092063;28;20024;-78
2021/11/20 04:31:31;;;;;;;25.40;11.20;;;8.40;99.90;;;;;;5074570;28;20020;-74
2021/11/20 04:33:56;;;;;;;20.00;10.20;;;8.40;99.90;;;;;;5074549;28;20035;-74
2021/11/20 04:36:24;;;;;;;21.10;10.13;;;8.30;99.90;;;;;;5092144;28;20016;-74
2021/11/20 04:38:50;;;;;;;21.42;9.70;;;8.30;99.90;;;;;;5074847;28;20372;-74
2021/11/20 04:41:16;;;;;;;20.42;9.88;;;8.30;99.90;;;;;;5092294;28;20077;-74
2021/11/20 04:43:43;;;;;;;19.02;8.98;;;8.40;99.90;;;;;;5074145;28;20396;-74
2021/11/20 04:46:10;;;;;;;20.48;10.07;;;8.30;99.90;;;;;;5073876;28;20495;-75
2021/11/20 04:48:36;;;;;;;23.23;10.10;;;8.20;99.90;;;;;;5092284;28;20032;-74
2021/11/20 04:51:03;;;;;;;20.40;10.10;;;8.20;99.90;;;;;;5092710;28;20384;-74
2021/11/20 04:53:34;;;;;;;21.02;9.30;;;8.20;99.90;;;;;;5074334;28;20190;-74
2021/11/20 04:56:03;;;;;;;20.23;10.13;;;8.20;99.90;;;;;;5074575;28;20060;-73
2021/11/20 04:58:29;;;;;;;22.17;9.55;;;8.20;99.90;;;;;;5073919;28;20140;-74
2021/11/20 05:00:56;;;;;;;19.23;9.23;;;8.20;99.90;;;;;;5092354;28;20111;-73
2021/11/20 05:03:22;;;;;;;20.95;9.02;;;8.20;99.90;;;;;;5073908;28;20117;-74
2021/11/20 05:05:50;;;;;;;18.30;9.40;;;8.20;99.90;;;;;;5089128;28;20085;-75
2021/11/20 05:08:17;;;;;;;19.88;9.40;;;8.10;99.90;;;;;;5080168;28;20023;-74
2021/11/20 05:10:44;;;;;;;23.45;9.75;;;8.10;99.90;;;;;;5064034;28;20016;-74
2021/11/20 05:13:10;;;;;;;17.58;9.20;;;8.10;99.90;;;;;;5061985;28;20047;-74
2021/11/20 05:15:39;;;;;;;18.27;9.48;;;8.10;99.90;;;;;;5064797;28;20360;-74
2021/11/20 05:18:06;;;;;;;17.48;8.98;;;8.10;99.90;;;;;;5073810;28;20369;-75
2021/11/20 05:20:32;;;;;;;16.98;9.13;;;8.10;99.90;;;;;;5089866;28;20023;-74
2021/11/20 05:22:58;;;;;;;19.70;9.00;;;8.10;99.90;;;;;;5084774;28;20024;-75
2021/11/20 05:25:24;;;;;;;22.10;10.00;;;8.00;99.90;;;;;;5061358;28;20154;-74
2021/11/20 05:27:53;;;;;;;19.85;9.82;;;8.00;99.90;;;;;;5081181;28;20016;-75
2021/11/20 05:30:27;;;;;;;20.35;8.77;;;8.10;99.90;;;;;;5065922;28;20028;-74
2021/11/20 05:32:54;;;;;;;19.13;9.52;;;8.00;99.90;;;;;;5057680;28;20024;-74
2021/11/20 05:35:23;;;;;;;21.23;9.45;;;8.00;99.90;;;;;;5057163;28;20020;-74
2021/11/20 05:37:48;;;;;;;18.52;9.20;;;7.90;99.90;;;;;;5075069;28;20020;-75
2021/11/20 05:40:16;;;;;;;19.98;9.20;;;7.90;99.90;;;;;;5057066;28;20415;-74
2021/11/20 05:42:47;;;;;;;21.35;10.23;;;7.80;99.90;;;;;;5057317;28;20070;-74
2021/11/20 05:45:14;;;;;;;18.33;10.10;;;7.80;99.90;;;;;;5074896;28;20021;-74
2021/11/20 05:47:40;;;;;;;23.75;9.82;;;7.70;99.90;;;;;;5075223;28;20112;-75
2021/11/20 05:50:07;;;;;;;17.67;8.68;;;7.70;99.90;;;;;;5074576;28;20036;-76
2021/11/20 05:52:33;;;;;;;16.55;8.32;;;7.70;99.90;;;;;;5057282;28;20023;-75
2021/11/20 05:54:59;;;;;;;16.92;8.88;;;7.70;99.90;;;;;;5057272;28;20119;-75
2021/11/20 05:57:25;;;;;;;18.23;9.18;;;7.70;99.90;;;;;;5074517;28;20036;-75
2021/11/20 05:59:50;;;;;;;18.98;8.80;;;7.60;99.90;;;;;;5057089;28;20055;-75
2021/11/20 06:02:16;;;;;;;21.00;9.10;;;7.60;99.90;;;;;;5074609;28;20024;-74
2021/11/20 06:04:42;;;;;;;17.40;8.07;;;7.60;99.90;;;;;;5074817;28;20028;-75
2021/11/20 06:07:11;;;;;;;22.73;8.80;;;7.60;99.90;;;;;;5074429;28;20056;-75
2021/11/20 06:09:40;;;;;;;22.40;9.30;;;7.50;99.90;;;;;;5074571;28;20530;-75
2021/11/20 06:12:08;;;;;;;18.30;8.85;;;7.50;99.90;;;;;;5056340;28;20105;-76
2021/11/20 06:14:34;;;;;;;16.98;7.88;;;7.60;99.90;;;;;;5057045;28;20127;-75
2021/11/20 06:17:00;;;;;;;16.88;8.93;;;7.60;99.90;;;;;;5074843;28;20056;-75
2021/11/20 06:19:26;;;;;;;23.35;10.02;;;7.60;99.90;;;;;;5056365;28;20128;-74
2021/11/20 06:21:52;;;;;;;22.23;9.65;;;7.50;99.90;;;;;;5076120;28;20382;-74
2021/11/20 06:24:18;;;;;;;23.67;10.45;;;7.50;99.90;;;;;;5092899;28;20024;-74
2021/11/20 06:26:46;;;;;;;24.05;10.18;;;7.50;99.90;;;;;;5092499;28;20363;-73
2021/11/20 06:29:12;;;;;;;22.80;10.55;;;7.50;99.90;;;;;;5094743;28;20016;-74
2021/11/20 06:31:38;;;;;;;23.80;11.45;;;7.50;99.90;;;;;;5076665;28;20058;-74
2021/11/20 06:34:05;;;;;;;28.15;11.63;;;7.50;99.90;;;;;;5076390;28;20421;-76
2021/11/20 06:36:31;;;;;;;25.58;9.80;;;7.50;99.90;;;;;;5094554;28;20395;-74
2021/11/20 06:38:58;;;;;;;23.95;9.77;;;7.50;99.90;;;;;;5061333;28;20081;-74
2021/11/20 06:41:24;;;;;;;22.85;9.48;;;7.50;99.90;;;;;;5085692;28;20031;-75
2021/11/20 06:43:50;;;;;;;20.60;9.77;;;7.50;99.90;;;;;;5064138;28;20025;-74
2021/11/20 06:46:18;;;;;;;18.10;8.85;;;7.50;99.90;;;;;;5083166;28;20021;-74
2021/11/20 06:48:44;;;;;;;17.10;8.82;;;7.50;99.90;;;;;;5064471;28;20480;-75
2021/11/20 06:51:11;;;;;;;18.30;8.27;;;7.50;99.90;;;;;;5063739;28;20035;-74
2021/11/20 06:53:37;;;;;;;18.83;8.32;;;7.50;99.90;;;;;;5065819;28;20547;-75
2021/11/20 06:56:04;;;;;;;21.13;9.05;;;7.50;99.90;;;;;;5066281;28;20021;-75
2021/11/20 07:01:06;;;;;;;20.38;8.68;;;7.50;99.90;;;;;;5074043;28;20020;-74
2021/11/20 07:03:39;;;;;;;17.55;8.00;;;7.50;99.90;;;;;;5055534;28;20024;-74
2021/11/20 07:06:17;;;;;;;21.15;8.32;;;7.50;99.90;;;;;;5055562;28;20025;-75
2021/11/20 07:08:44;;;;;;;18.83;8.68;;;7.50;99.90;;;;;;5073795;28;20025;-74
2021/11/20 07:11:10;;;;;;;23.60;10.02;;;7.50;99.90;;;;;;5055528;28;20020;-75
2021/11/20 07:13:36;;;;;;;20.30;9.57;;;7.40;99.90;;;;;;5073597;28;20465;-75
2021/11/20 07:16:03;;;;;;;21.80;10.02;;;7.40;99.90;;;;;;5055764;28;20484;-76
2021/11/20 07:18:28;;;;;;;19.95;9.02;;;7.40;99.90;;;;;;5055412;28;20533;-76
2021/11/20 07:20:54;;;;;;;22.85;10.35;;;7.40;99.90;;;;;;5073360;28;20162;-76
2021/11/20 07:23:20;;;;;;;24.13;10.05;;;7.40;99.90;;;;;;5055185;28;20389;-75
2021/11/20 07:25:46;;;;;;;25.92;10.38;;;7.50;99.90;;;;;;5055508;28;20453;-74
2021/11/20 07:28:12;;;;;;;27.63;10.73;;;7.50;99.90;;;;;;5072898;28;20024;-75
2021/11/20 07:30:40;;;;;;;26.10;10.60;;;7.50;99.90;;;;;;5073253;28;20399;-74
2021/11/20 07:33:07;;;;;;;26.80;10.80;;;7.50;99.90;;;;;;5063066;28;20029;-76
2021/11/20 07:35:48;;;;;;;25.30;10.75;;;7.50;99.90;;;;;;5091917;28;20016;-75
2021/11/20 07:38:18;;;;;;;19.88;9.15;;;7.50;99.90;;;;;;5089449;28;20455;-76
2021/11/20 07:40:44;;;;;;;23.73;9.90;;;7.50;99.90;;;;;;5079069;28;20034;-75
2021/11/20 07:43:12;;;;;;;28.05;10.35;;;7.50;99.90;;;;;;5089988;28;20024;-76
2021/11/20 07:45:38;;;;;;;20.42;9.52;;;7.40;99.90;;;;;;5071456;28;20457;-75
2021/11/20 07:48:13;;;;;;;22.00;10.02;;;7.50;99.90;;;;;;5090041;28;20040;-74
2021/11/20 07:50:40;;;;;;;22.08;9.80;;;7.50;99.90;;;;;;5072001;28;20044;-75
2021/11/20 07:53:06;;;;;;;24.30;10.82;;;7.50;99.90;;;;;;5073067;28;20028;-74
2021/11/20 07:55:32;;;;;;;25.42;9.80;;;7.50;99.90;;;;;;5090339;28;20470;-75
2021/11/20 07:57:58;;;;;;;25.73;10.35;;;7.50;99.90;;;;;;5091400;28;20090;-73
2021/11/20 08:00:26;;;;;;;29.92;11.77;;;7.60;99.90;;;;;;5091143;28;20032;-75
2021/11/20 08:02:52;;;;;;;22.38;10.05;;;7.50;99.90;;;;;;5072335;28;20019;-75
2021/11/20 08:05:18;;;;;;;26.23;10.45;;;7.50;99.90;;;;;;5070702;28;20393;-74
2021/11/20 08:07:44;;;;;;;30.77;10.75;;;7.50;99.90;;;;;;5090771;28;20047;-73
2021/11/20 08:10:15;;;;;;;26.45;11.10;;;7.40;99.90;;;;;;5091949;28;20020;-75
2021/11/20 08:12:41;;;;;;;26.35;10.52;;;7.40;99.90;;;;;;5072769;28;20032;-74
2021/11/20 08:15:07;;;;;;;27.25;10.70;;;7.40;99.90;;;;;;5073127;28;20059;-74
2021/11/20 08:17:34;;;;;;;26.42;11.00;;;7.40;99.90;;;;;;5074748;28;20016;-74
2021/11/20 08:19:59;;;;;;;32.50;11.35;;;7.40;99.90;;;;;;5073977;28;20036;-75
2021/11/20 08:22:25;;;;;;;25.23;10.70;;;7.50;99.90;;;;;;5091129;28;20426;-74
2021/11/20 08:24:51;;;;;;;28.83;10.32;;;7.50;99.90;;;;;;5073804;28;20473;-74
2021/11/20 08:27:17;;;;;;;24.75;9.68;;;7.40;99.90;;;;;;5073436;28;20058;-74
2021/11/20 08:29:43;;;;;;;22.63;9.70;;;7.40;99.90;;;;;;5073918;28;20024;-74
2021/11/20 08:32:10;;;;;;;27.35;10.95;;;7.40;99.90;;;;;;5073836;28;20024;-75
2021/11/20 08:34:40;;;;;;;24.88;10.63;;;7.40;99.90;;;;;;5091282;28;20031;-75
2021/11/20 08:37:06;;;;;;;25.05;10.85;;;7.40;99.90;;;;;;5092336;28;20024;-75
2021/11/20 08:39:32;;;;;;;29.42;11.30;;;7.50;99.90;;;;;;5072193;28;20123;-73
2021/11/20 08:41:58;;;;;;;24.83;10.80;;;7.60;99.90;;;;;;5089974;28;20150;-75
2021/11/20 08:44:26;;;;;;;22.88;9.27;;;7.50;99.90;;;;;;5071768;28;20032;-79
2021/11/20 08:46:52;;;;;;;21.63;9.38;;;7.50;99.90;;;;;;5069275;28;20044;-78
2021/11/20 08:49:19;;;;;;;24.80;10.02;;;7.50;99.90;;;;;;5072185;28;20036;-78
2021/11/20 08:51:47;;;;;;;25.52;10.15;;;7.50;99.90;;;;;;5066370;28;20024;-77
2021/11/20 08:54:13;;;;;;;23.90;10.40;;;7.60;99.90;;;;;;5070412;28;20463;-77
2021/11/20 08:56:41;;;;;;;24.25;10.88;;;7.60;99.90;;;;;;5090349;28;20035;-76
2021/11/20 08:59:10;;;;;;;25.15;10.32;;;7.60;99.90;;;;;;5066978;28;20044;-77
2021/11/20 09:01:53;;;;;;;28.08;11.10;;;7.60;99.90;;;;;;5055468;28;20052;-78
2021/11/20 09:04:53;;;;;;;24.40;11.13;;;7.60;99.90;;;;;;5052605;28;20450;-76
2021/11/20 09:07:51;;;;;;;23.75;10.63;;;7.60;99.90;;;;;;5029840;28;20063;-83
2021/11/20 09:10:26;;;;;;;24.17;10.30;;;7.60;99.90;;;;;;5072730;28;20055;-76
2021/11/20 09:13:05;;;;;;;25.33;10.60;;;7.60;99.90;;;;;;5075067;28;20024;-82
2021/11/20 09:15:36;;;;;;;32.35;10.85;;;7.70;99.90;;;;;;5074915;28;20036;-87
2021/11/20 09:18:02;;;;;;;24.90;10.43;;;7.60;99.90;;;;;;5074533;28;20090;-81
2021/11/20 09:20:29;;;;;;;25.60;11.02;;;7.60;99.90;;;;;;5074629;28;20028;-79
2021/11/20 09:22:55;;;;;;;27.20;11.02;;;7.60;99.90;;;;;;5075467;28;20060;-78
2021/11/20 09:25:22;;;;;;;24.65;10.50;;;7.60;99.90;;;;;;5073780;28;20033;-78
2021/11/20 09:27:48;;;;;;;28.38;11.77;;;7.60;99.90;;;;;;5074529;28;20469;-79
2021/11/20 09:30:22;;;;;;;26.63;11.20;;;7.70;99.90;;;;;;5074209;28;20381;-81
2021/11/20 09:32:47;;;;;;;26.98;10.75;;;7.70;99.90;;;;;;5074568;28;20024;-78
2021/11/20 09:35:13;;;;;;;27.00;11.43;;;7.60;99.90;;;;;;5075108;28;20038;-81
2021/11/20 09:37:39;;;;;;;25.38;11.30;;;7.60;99.90;;;;;;5073692;28;20090;-79
2021/11/20 09:40:07;;;;;;;26.48;11.27;;;7.70;99.90;;;;;;5075418;28;20090;-79
2021/11/20 09:42:42;;;;;;;27.73;11.40;;;7.80;99.90;;;;;;5073299;28;20029;-80
2021/11/20 09:45:21;;;;;;;28.05;11.65;;;8.00;99.90;;;;;;5072133;28;20025;-82
2021/11/20 09:47:51;;;;;;;25.10;11.18;;;8.00;99.90;;;;;;5051267;28;20033;-82
2021/11/20 09:50:23;;;;;;;24.77;11.27;;;8.00;99.90;;;;;;5060742;28;20380;-81
2021/11/20 09:52:50;;;;;;;23.90;9.73;;;8.00;99.90;;;;;;5071440;28;20483;-83
2021/11/20 09:55:23;;;;;;;29.10;10.95;;;8.00;99.90;;;;;;5073005;28;20485;-86
2021/11/20 09:57:54;;;;;;;27.23;11.32;;;7.90;99.90;;;;;;5073387;28;20429;-85
2021/11/20 10:00:40;;;;;;;24.13;10.65;;;7.80;99.90;;;;;;5073162;28;20485;-86
2021/11/20 10:03:10;;;;;;;22.40;9.90;;;7.70;99.90;;;;;;5050382;28;20482;-84
2021/11/20 10:05:40;;;;;;;20.83;9.95;;;7.80;99.90;;;;;;5068172;28;20095;-86
2021/11/20 10:08:21;;;;;;;18.33;8.65;;;7.80;99.90;;;;;;5071738;28;20051;-87
2021/11/20 10:10:58;;;;;;;17.17;8.02;;;7.80;99.90;;;;;;5057323;28;20107;-81
2021/11/20 10:13:27;;;;;;;17.83;8.38;;;7.70;99.90;;;;;;5068338;28;20473;-84
2021/11/20 10:16:24;;;;;;;18.83;9.02;;;7.80;99.90;;;;;;5055708;28;20025;-86
2021/11/20 10:19:08;;;;;;;23.42;9.10;;;7.70;99.90;;;;;;5062289;28;20474;-81
2021/11/20 10:21:52;;;;;;;17.92;8.50;;;7.70;99.90;;;;;;5054109;28;20021;-83
2021/11/20 10:24:32;;;;;;;18.02;8.35;;;7.70;99.90;;;;;;5063915;28;20807;-82
2021/11/20 10:27:23;;;;;;;17.83;8.30;;;7.80;99.90;;;;;;5058829;28;20083;-81
2021/11/20 10:30:26;;;;;;;17.88;8.40;;;7.90;99.90;;;;;;5062694;28;20059;-79
2021/11/20 10:32:58;;;;;;;16.15;7.80;;;7.90;99.90;;;;;;5070999;28;20106;-79
2021/11/20 10:35:35;;;;;;;18.92;9.05;;;8.10;99.90;;;;;;5066546;28;20040;-79
2021/11/20 10:38:13;;;;;;;19.88;8.95;;;8.20;99.90;;;;;;5075255;28;20032;-83
2021/11/20 10:40:51;;;;;;;18.05;9.07;;;8.20;99.90;;;;;;5065959;28;20547;-76
2021/11/20 10:43:25;;;;;;;18.42;8.57;;;8.30;99.90;;;;;;5065106;28;20484;-79
2021/11/20 10:46:07;;;;;;;17.25;8.60;;;8.50;99.90;;;;;;5067581;28;20507;-76
2021/11/20 10:49:16;;;;;;;18.60;8.50;;;8.50;99.90;;;;;;5067211;28;20480;-77
2021/11/20 10:51:46;;;;;;;20.67;9.13;;;8.50;99.90;;;;;;5070556;28;20020;-79
2021/11/20 10:54:33;;;;;;;15.43;7.78;;;8.40;99.90;;;;;;5064578;28;20473;-77
2021/11/20 10:57:01;;;;;;;16.85;8.52;;;8.50;99.90;;;;;;5069822;28;20027;-77
2021/11/20 10:59:54;;;;;;;19.95;9.30;;;8.50;99.90;;;;;;5061132;28;21252;-77
2021/11/20 11:02:35;;;;;;;20.15;8.85;;;8.50;99.90;;;;;;5065747;28;20020;-78
2021/11/20 11:05:07;;;;;;;16.33;8.57;;;8.50;99.90;;;;;;5063100;28;20036;-79
2021/11/20 11:07:49;;;;;;;17.30;7.80;;;8.50;99.90;;;;;;5066924;28;20029;-79
2021/11/20 11:10:20;;;;;;;14.38;7.88;;;8.40;99.90;;;;;;5062105;28;20028;-79
2021/11/20 11:12:46;;;;;;;17.58;8.30;;;8.40;99.90;;;;;;5066422;28;20025;-79
2021/11/20 11:15:24;;;;;;;14.10;8.32;;;8.40;99.90;;;;;;5072045;28;20035;-79
2021/11/20 11:18:24;;;;;;;16.52;8.02;;;8.30;99.90;;;;;;5066312;28;20040;-79
2021/11/20 11:21:23;;;;;;;15.13;7.97;;;8.40;99.90;;;;;;5067985;28;20028;-76
2021/11/20 11:24:10;;;;;;;18.70;8.35;;;8.50;99.90;;;;;;5057022;28;20409;-76
2021/11/20 11:26:57;;;;;;;17.98;8.38;;;8.50;99.90;;;;;;5070636;28;20023;-76
2021/11/20 11:29:43;;;;;;;14.98;7.70;;;8.50;99.90;;;;;;5071811;28;20024;-79
2021/11/20 11:32:11;;;;;;;14.38;7.28;;;8.60;99.90;;;;;;5071739;28;20036;-80
2021/11/20 11:34:50;;;;;;;13.88;7.35;;;8.70;99.90;;;;;;5069612;28;20024;-85
2021/11/20 11:37:16;;;;;;;16.35;7.57;;;8.80;99.90;;;;;;5063040;28;20012;-83
2021/11/20 11:40:00;;;;;;;13.10;7.45;;;8.90;99.90;;;;;;5066948;28;20624;-84
2021/11/20 11:42:44;;;;;;;14.10;6.88;;;9.10;99.90;;;;;;5066001;28;20109;-81
2021/11/20 11:45:28;;;;;;;13.70;7.47;;;9.10;99.90;;;;;;5060357;28;20544;-80
2021/11/20 11:48:15;;;;;;;15.02;6.93;;;9.10;99.90;;;;;;5069311;28;20478;-82
2021/11/20 11:51:05;;;;;;;18.73;7.05;;;9.10;99.90;;;;;;5071995;28;20025;-82
2021/11/20 11:53:41;;;;;;;11.00;6.15;;;9.10;99.90;;;;;;5071322;28;20020;-86
2021/11/20 11:56:10;;;;;;;15.48;6.97;;;9.10;99.90;;;;;;5072224;28;20465;-78
2021/11/20 11:59:01;;;;;;;15.52;6.88;;;9.20;99.90;;;;;;5065766;28;20219;-79
2021/11/20 12:01:52;;;;;;;13.27;6.67;;;9.20;99.90;;;;;;5071422;28;20021;-82
2021/11/20 12:04:30;;;;;;;12.73;6.72;;;9.30;99.90;;;;;;5067991;28;20282;-81
2021/11/20 12:07:18;;;;;;;11.85;6.55;;;9.30;99.90;;;;;;5065408;28;20024;-81
2021/11/20 12:09:48;;;;;;;9.45;5.30;;;9.40;99.90;;;;;;5068246;28;20024;-80
2021/11/20 12:12:39;;;;;;;11.80;6.00;;;9.40;99.90;;;;;;5069764;28;20104;-82
2021/11/20 12:15:19;;;;;;;13.55;6.15;;;9.50;99.90;;;;;;5069089;28;20591;-85
2021/11/20 12:18:00;;;;;;;10.15;5.75;;;9.50;99.90;;;;;;5071909;28;20458;-89
2021/11/20 12:20:39;;;;;;;11.70;6.25;;;9.50;99.90;;;;;;5069345;28;20021;-80
2021/11/20 12:23:25;;;;;;;12.65;6.43;;;9.40;99.90;;;;;;5067731;28;20028;-87
2021/11/20 12:26:13;;;;;;;9.55;5.47;;;9.40;99.90;;;;;;5067264;28;20061;-85
2021/11/20 12:28:59;;;;;;;10.73;5.75;;;9.40;99.90;;;;;;5068826;28;20060;-79
2021/11/20 12:31:45;;;;;;;11.68;5.65;;;9.30;99.90;;;;;;5062802;28;20441;-82
2021/11/20 12:34:35;;;;;;;10.43;5.95;;;9.30;99.90;;;;;;5068517;28;20025;-82
2021/11/20 12:37:48;;;;;;;10.85;6.25;;;9.30;99.90;;;;;;5070137;28;20025;-80
2021/11/20 12:40:41;;;;;;;11.20;5.93;;;9.20;99.90;;;;;;5051284;28;20600;-79
2021/11/20 12:43:51;;;;;;;11.43;5.80;;;9.20;99.90;;;;;;5052758;28;20032;-83
2021/11/20 12:46:24;;;;;;;13.18;5.95;;;9.30;99.90;;;;;;5052246;28;20039;-80
2021/11/20 12:48:52;;;;;;;11.82;5.80;;;9.30;99.90;;;;;;5036895;28;20068;-80
2021/11/20 12:51:17;;;;;;;12.63;6.03;;;9.40;99.90;;;;;;5034039;28;20132;-79
2021/11/20 12:54:21;;;;;;;9.45;5.35;;;9.40;99.90;;;;;;5054118;28;20033;-79
2021/11/20 12:56:47;;;;;;;11.40;5.70;;;9.40;99.90;;;;;;5022926;28;20029;-80
2021/11/20 12:59:14;;;;;;;12.30;5.78;;;9.50;99.90;;;;;;5051540;28;20083;-79
2021/11/20 13:02:04;;;;;;;10.88;6.05;;;9.50;99.90;;;;;;5036698;28;20041;-79
2021/11/20 13:04:48;;;;;;;9.68;5.63;;;9.50;99.90;;;;;;5053635;28;20492;-79
2021/11/20 13:07:24;;;;;;;11.55;6.15;;;9.50;99.90;;;;;;5053366;28;20034;-83
2021/11/20 13:10:08;;;;;;;12.30;5.68;;;9.50;99.90;;;;;;5033934;28;20469;-83